createdAt,value
2022-11-29T00:01:39.742Z,100893.08
2022-11-29T00:04:08.111Z,100887.89
2022-11-29T00:06:36.393Z,100885.65
2022-11-29T00:09:11.873Z,100887.20
2022-11-29T00:12:00.974Z,100888.77
2022-11-29T00:14:29.416Z,100887.21
2022-11-29T00:17:02.400Z,100888.77
2022-11-29T00:19:32.772Z,100887.55
2022-11-29T00:22:02.479Z,100887.22
2022-11-29T00:24:32.789Z,100886.71
2022-11-29T00:27:01.493Z,100886.73
2022-11-29T00:29:30.756Z,100888.47
2022-11-29T00:31:59.525Z,100887.95
2022-11-29T00:34:27.882Z,100889.51
2022-11-29T00:36:55.813Z,100892.64
2022-11-29T00:39:24.349Z,100893.15
2022-11-29T00:41:52.808Z,100892.29
2022-11-29T00:44:20.888Z,100888.83
2022-11-29T00:46:49.446Z,100882.94
2022-11-29T00:49:18.106Z,100880.17
2022-11-29T00:51:46.688Z,100880.16
2022-11-29T00:54:14.619Z,100877.75
2022-11-29T00:56:42.960Z,100876.54
2022-11-29T00:59:10.945Z,100876.52
2022-11-29T01:01:39.302Z,100875.31
2022-11-29T01:04:07.362Z,100874.12
2022-11-29T01:06:35.547Z,100875.15
2022-11-29T01:09:04.075Z,100873.43
2022-11-29T01:11:32.317Z,100870.00
2022-11-29T01:14:03.070Z,100871.55
2022-11-29T01:16:31.608Z,100869.84
2022-11-29T01:19:00.747Z,100867.40
2022-11-29T01:21:29.285Z,100866.36
2022-11-29T01:23:57.502Z,100861.90
2022-11-29T01:26:28.063Z,100856.56
2022-11-29T01:28:58.688Z,100853.13
2022-11-29T01:31:30.942Z,100852.11
2022-11-29T01:34:02.038Z,100856.79
2022-11-29T01:36:30.267Z,100854.04
2022-11-29T01:39:02.360Z,100857.48
2022-11-29T01:41:33.181Z,100859.20
2022-11-29T01:44:28.491Z,100854.72
2022-11-29T01:46:57.482Z,100854.73
2022-11-29T01:49:42.834Z,100849.37
2022-11-29T01:52:23.838Z,100847.13
2022-11-29T01:54:56.764Z,100851.45
2022-11-29T01:57:25.421Z,100847.84
2022-11-29T02:00:20.774Z,100844.20
2022-11-29T02:03:12.834Z,100843.52
2022-11-29T02:05:44.991Z,100842.84
2022-11-29T02:08:15.843Z,100835.09
2022-11-29T02:10:50.567Z,100835.09
2022-11-29T02:13:33.730Z,100836.31
2022-11-29T02:16:14.110Z,100835.29
2022-11-29T02:18:57.536Z,100835.28
2022-11-29T02:21:45.732Z,100834.60
2022-11-29T02:24:13.545Z,100835.83
2022-11-29T02:26:59.167Z,100833.21
2022-11-29T02:30:05.215Z,100831.33
2022-11-29T02:32:48.509Z,100829.27
2022-11-29T02:35:54.863Z,100831.17
2022-11-29T02:38:59.025Z,100834.11
2022-11-29T02:41:41.935Z,100833.42
2022-11-29T02:44:18.850Z,100836.88
2022-11-29T02:47:22.776Z,100839.82
2022-11-29T02:49:53.914Z,100840.84
2022-11-29T02:52:55.521Z,100842.23
2022-11-29T02:55:43.460Z,100841.88
2022-11-29T02:58:17.687Z,100841.36
2022-11-29T03:01:18.822Z,100843.96
2022-11-29T03:04:34.177Z,100848.61
2022-11-29T03:07:24.319Z,100851.02
2022-11-29T03:10:13.919Z,100854.46
2022-11-29T03:12:47.484Z,100854.98
2022-11-29T03:15:34.395Z,100852.73
2022-11-29T03:18:20.566Z,100852.21
2022-11-29T03:21:18.425Z,100848.60
2022-11-29T03:23:57.749Z,100854.45
2022-11-29T03:26:42.666Z,100853.41
2022-11-29T03:29:39.904Z,100851.52
2022-11-29T03:32:28.897Z,100853.08
2022-11-29T03:35:13.128Z,100851.36
2022-11-29T03:38:08.472Z,100853.07
2022-11-29T03:40:50.203Z,100856.52
2022-11-29T03:43:26.646Z,100861.69
2022-11-29T03:46:04.678Z,100860.65
2022-11-29T03:48:58.693Z,100859.45
2022-11-29T03:51:41.443Z,100856.34
2022-11-29T03:54:19.850Z,100858.41
2022-11-29T03:56:48.103Z,100858.58
2022-11-29T03:59:30.898Z,100862.89
2022-11-29T04:02:20.649Z,100859.45
2022-11-29T04:05:07.491Z,100859.77
2022-11-29T04:08:06.225Z,100858.91
2022-11-29T04:11:02.465Z,100855.80
2022-11-29T04:13:39.368Z,100857.17
2022-11-29T04:16:10.400Z,100857.36
2022-11-29T04:18:53.288Z,100856.51
2022-11-29T04:21:42.282Z,100857.88
2022-11-29T04:24:19.441Z,100857.38
2022-11-29T04:27:24.654Z,100860.15
2022-11-29T04:29:55.818Z,100859.13
2022-11-29T04:32:42.392Z,100856.02
2022-11-29T04:35:38.147Z,100858.27
2022-11-29T04:38:12.065Z,100858.09
2022-11-29T04:40:43.140Z,100854.98
2022-11-29T04:43:14.303Z,100856.35
2022-11-29T04:45:53.439Z,100855.66
2022-11-29T04:48:38.935Z,100855.15
2022-11-29T04:51:28.145Z,100858.25
2022-11-29T04:54:16.202Z,100862.21
2022-11-29T04:56:52.027Z,100869.97
2022-11-29T04:59:38.733Z,100869.45
2022-11-29T05:02:37.636Z,100872.05
2022-11-29T05:05:37.017Z,100871.02
2022-11-29T05:08:35.918Z,100869.11
2022-11-29T05:11:13.404Z,100873.59
2022-11-29T05:14:08.826Z,100877.90
2022-11-29T05:17:18.826Z,100882.89
2022-11-29T05:19:55.499Z,100879.09
2022-11-29T05:22:48.993Z,100874.77
2022-11-29T05:25:40.402Z,100872.17
2022-11-29T05:28:25.818Z,100872.67
2022-11-29T05:30:56.931Z,100872.32
2022-11-29T05:33:51.493Z,100875.94
2022-11-29T05:36:38.443Z,100877.48
2022-11-29T05:39:31.264Z,100878.55
2022-11-29T05:42:23.689Z,100877.19
2022-11-29T05:45:18.737Z,100878.91
2022-11-29T05:47:50.744Z,100883.73
2022-11-29T05:50:58.625Z,100884.59
2022-11-29T05:53:48.663Z,100882.53
2022-11-29T05:56:27.927Z,100880.30
2022-11-29T05:59:03.652Z,100882.36
2022-11-29T06:01:37.936Z,100881.16
2022-11-29T06:04:15.248Z,100881.67
2022-11-29T06:06:55.735Z,100885.30
2022-11-29T06:09:28.838Z,100883.73
2022-11-29T06:12:05.350Z,100883.58
2022-11-29T06:14:43.003Z,100881.15
2022-11-29T06:17:49.009Z,100880.13
2022-11-29T06:20:43.898Z,100880.64
2022-11-29T06:23:24.537Z,100877.35
2022-11-29T06:26:03.638Z,100879.06
2022-11-29T06:28:49.024Z,100879.39
2022-11-29T06:31:34.659Z,100880.94
2022-11-29T06:34:14.642Z,100879.90
2022-11-29T06:36:50.893Z,100883.17
2022-11-29T06:39:19.364Z,100884.20
2022-11-29T06:41:49.286Z,100881.63
2022-11-29T06:44:17.751Z,100882.84
2022-11-29T06:46:48.010Z,100882.66
2022-11-29T06:49:39.255Z,100881.46
2022-11-29T06:52:37.797Z,100881.65
2022-11-29T06:55:20.132Z,100886.13
2022-11-29T06:58:15.351Z,100887.16
2022-11-29T07:01:02.065Z,100883.88
2022-11-29T07:03:48.275Z,100884.56
2022-11-29T07:06:24.930Z,100885.44
2022-11-29T07:08:58.858Z,100884.08
2022-11-29T07:11:27.965Z,100880.12
2022-11-29T07:13:56.271Z,100879.08
2022-11-29T07:16:54.473Z,100884.42
2022-11-29T07:19:40.141Z,100882.19
2022-11-29T07:22:28.026Z,100880.63
2022-11-29T07:25:20.847Z,100881.16
2022-11-29T07:28:07.001Z,100885.45
2022-11-29T07:30:52.524Z,100883.74
2022-11-29T07:33:46.683Z,100879.10
2022-11-29T07:36:43.018Z,100879.62
2022-11-29T07:39:22.512Z,100880.13
2022-11-29T07:42:16.180Z,100881.16
2022-11-29T07:45:06.217Z,100883.59
2022-11-29T07:47:36.062Z,100880.81
2022-11-29T07:50:05.318Z,100881.52
2022-11-29T07:52:33.599Z,100885.83
2022-11-29T07:55:02.365Z,100888.58
2022-11-29T07:57:30.400Z,100887.71
2022-11-29T07:59:58.571Z,100891.16
2022-11-29T08:02:31.155Z,100890.48
2022-11-29T08:04:59.539Z,100887.20
2022-11-29T08:07:28.647Z,100887.54
2022-11-29T08:09:56.695Z,100887.53
2022-11-29T08:12:24.689Z,100887.55
2022-11-29T08:14:52.617Z,100885.30
2022-11-29T08:17:20.837Z,100890.81
2022-11-29T08:19:49.328Z,100892.36
2022-11-29T08:22:17.448Z,100892.04
2022-11-29T08:24:45.532Z,100896.69
2022-11-29T08:27:13.741Z,100896.69
2022-11-29T08:29:41.865Z,100897.04
2022-11-29T08:32:09.835Z,100896.34
2022-11-29T08:34:38.313Z,100898.73
2022-11-29T08:37:06.411Z,100893.58
2022-11-29T08:39:34.483Z,100893.92
2022-11-29T08:42:02.514Z,100892.72
2022-11-29T08:44:30.486Z,100891.34
2022-11-29T08:47:16.994Z,100893.58
2022-11-29T08:50:03.343Z,100893.23
2022-11-29T08:52:54.192Z,100890.98
2022-11-29T08:55:25.034Z,100890.13
2022-11-29T08:57:55.079Z,100892.54
2022-11-29T09:00:23.193Z,100895.27
2022-11-29T09:02:51.491Z,100891.14
2022-11-29T09:05:20.276Z,100888.70
2022-11-29T09:07:48.179Z,100887.13
2022-11-29T09:10:16.642Z,100884.46
2022-11-29T09:12:45.195Z,100882.89
2022-11-29T09:15:13.321Z,100881.48
2022-11-29T09:17:41.208Z,100878.73
2022-11-29T09:20:09.393Z,100878.38
2022-11-29T09:22:37.356Z,100877.17
2022-11-29T09:25:05.810Z,100878.89
2022-11-29T09:27:33.695Z,100878.54
2022-11-29T09:30:01.846Z,100879.38
2022-11-29T09:32:31.306Z,100877.30
2022-11-29T09:34:59.453Z,100875.73
2022-11-29T09:37:27.664Z,100871.73
2022-11-29T09:39:55.650Z,100863.25
2022-11-29T09:43:15.301Z,100864.94
2022-11-29T09:45:47.386Z,100866.27
2022-11-29T09:48:36.993Z,100859.86
2022-11-29T09:51:13.700Z,100861.04
2022-11-29T09:54:00.282Z,100857.55
2022-11-29T09:56:42.655Z,100856.50
2022-11-29T09:59:37.432Z,100853.73
2022-11-29T10:02:21.987Z,100851.65
2022-11-29T10:04:58.175Z,100850.92
2022-11-29T10:07:46.220Z,100847.11
2022-11-29T10:10:24.346Z,100847.08
2022-11-29T10:12:59.836Z,100848.80
2022-11-29T10:15:32.204Z,100848.27
2022-11-29T10:18:22.701Z,100850.87
2022-11-29T10:20:54.195Z,100846.05
2022-11-29T10:23:34.865Z,100844.17
2022-11-29T10:26:08.177Z,100845.55
2022-11-29T10:28:37.796Z,100843.48
2022-11-29T10:31:29.363Z,100845.20
2022-11-29T10:34:01.079Z,100845.38
2022-11-29T10:36:36.727Z,100844.66
2022-11-29T10:39:19.995Z,100845.50
2022-11-29T10:41:55.917Z,100844.82
2022-11-29T10:44:24.630Z,100841.73
2022-11-29T10:46:53.511Z,100842.96
2022-11-29T10:49:27.080Z,100845.56
2022-11-29T10:51:55.166Z,100846.95
2022-11-29T10:54:38.944Z,100846.77
2022-11-29T10:57:19.140Z,100849.70
2022-11-29T11:00:07.360Z,100849.19
2022-11-29T11:02:36.823Z,100855.24
2022-11-29T11:05:13.369Z,100857.15
2022-11-29T11:07:41.959Z,100860.63
2022-11-29T11:10:29.069Z,100863.23
2022-11-29T11:13:20.943Z,100861.64
2022-11-29T11:15:49.005Z,100865.11
2022-11-29T11:18:23.100Z,100866.04
2022-11-29T11:20:58.765Z,100867.94
2022-11-29T11:23:30.604Z,100868.45
2022-11-29T11:26:05.319Z,100869.63
2022-11-29T11:28:43.869Z,100868.04
2022-11-29T11:31:13.131Z,100868.36
2022-11-29T11:33:46.149Z,100875.08
2022-11-29T11:36:22.581Z,100872.63
2022-11-29T11:38:56.191Z,100873.95
2022-11-29T11:41:57.237Z,100876.15
2022-11-29T11:44:51.725Z,100875.45
2022-11-29T11:47:24.568Z,100873.48
2022-11-29T11:50:04.509Z,100868.73
2022-11-29T11:52:53.367Z,100871.20
2022-11-29T11:55:21.287Z,100873.64
2022-11-29T11:58:03.387Z,100867.78
2022-11-29T12:01:07.862Z,100863.64
2022-11-29T12:03:41.870Z,100861.94
2022-11-29T12:06:25.826Z,100862.27
2022-11-29T12:09:19.603Z,100862.06
2022-11-29T12:11:54.564Z,100861.36
2022-11-29T12:14:30.283Z,100856.91
2022-11-29T12:17:09.914Z,100849.84
2022-11-29T12:19:49.600Z,100846.90
2022-11-29T12:22:24.912Z,100847.39
2022-11-29T12:25:02.307Z,100847.00
2022-11-29T12:27:31.432Z,100845.08
2022-11-29T12:29:59.280Z,100844.90
2022-11-29T12:32:30.127Z,100845.26
2022-11-29T12:35:22.608Z,100844.55
2022-11-29T12:38:05.917Z,100848.39
2022-11-29T12:40:49.401Z,100847.41
2022-11-29T12:43:23.612Z,100843.81
2022-11-29T12:46:16.055Z,100843.13
2022-11-29T12:48:57.464Z,100841.25
2022-11-29T12:51:25.623Z,100842.95
2022-11-29T12:54:20.618Z,100841.00
2022-11-29T12:56:55.877Z,100835.48
2022-11-29T13:00:06.264Z,100833.09
2022-11-29T13:02:44.032Z,100832.21
2022-11-29T13:05:24.985Z,100830.27
2022-11-29T13:08:11.385Z,100824.06
2022-11-29T13:10:39.482Z,100824.39
2022-11-29T13:13:44.427Z,100823.69
2022-11-29T13:19:18.842Z,100839.05
2022-11-29T13:21:58.093Z,100850.95
2022-11-29T13:24:38.354Z,100861.69
2022-11-29T13:27:18.881Z,100867.63
2022-11-29T13:29:47.848Z,100868.73
2022-11-29T13:32:26.248Z,100868.31
2022-11-29T13:34:59.743Z,100870.13
2022-11-29T13:37:40.522Z,100869.52
2022-11-29T13:40:25.864Z,100869.08
2022-11-29T13:42:58.601Z,100871.76
2022-11-29T13:45:44.741Z,100878.20
2022-11-29T13:48:32.424Z,100877.59
2022-11-29T13:51:23.665Z,100877.63
2022-11-29T13:53:53.402Z,100878.70
2022-11-29T13:56:29.823Z,100882.17
2022-11-29T13:58:59.148Z,100888.92
2022-11-29T14:01:28.621Z,100891.67
2022-11-29T14:04:04.888Z,100890.98
2022-11-29T14:06:38.370Z,100890.13
2022-11-29T14:09:31.881Z,100887.91
2022-11-29T14:12:37.292Z,100886.00
2022-11-29T14:15:11.336Z,100885.83
2022-11-29T14:17:51.542Z,100886.70
2022-11-29T14:20:22.508Z,100889.96
2022-11-29T14:23:05.829Z,100890.31
2022-11-29T14:26:01.004Z,100889.62
2022-11-29T14:28:34.596Z,100889.95
2022-11-29T14:31:05.086Z,100893.92
2022-11-29T14:33:52.153Z,100891.52
2022-11-29T14:36:48.097Z,100882.55
2022-11-29T14:39:41.168Z,100875.16
2022-11-29T14:42:21.386Z,100879.80
2022-11-29T14:44:54.470Z,100877.90
2022-11-29T14:47:32.102Z,100876.86
2022-11-29T14:50:04.386Z,100869.96
2022-11-29T14:52:38.755Z,100857.55
2022-11-29T14:55:09.389Z,100845.82
2022-11-29T14:58:03.819Z,100839.78
2022-11-29T15:00:47.341Z,100835.48
2022-11-29T15:03:32.044Z,100827.21
2022-11-29T15:06:06.139Z,100828.07
2022-11-29T15:09:01.881Z,100833.59
2022-11-29T15:11:52.874Z,100840.46
2022-11-29T15:14:20.918Z,100845.46
2022-11-29T15:17:31.441Z,100849.42
2022-11-29T15:20:25.415Z,100856.84
2022-11-29T15:22:57.991Z,100862.19
2022-11-29T15:25:30.940Z,100855.45
2022-11-29T15:28:04.854Z,100854.59
2022-11-29T15:30:35.993Z,100854.94
2022-11-29T15:33:19.068Z,100853.55
2022-11-29T15:35:57.016Z,100855.61
2022-11-29T15:38:25.232Z,100856.83
2022-11-29T15:40:55.344Z,100857.52
2022-11-29T15:43:30.466Z,100861.84
2022-11-29T15:45:59.411Z,100859.77
2022-11-29T15:48:29.999Z,100860.46
2022-11-29T15:50:57.871Z,100868.41
2022-11-29T15:53:38.542Z,100868.06
2022-11-29T15:56:18.487Z,100870.64
2022-11-29T15:58:48.938Z,100868.41
2022-11-29T16:01:21.907Z,100867.73
2022-11-29T16:03:53.695Z,100871.35
2022-11-29T16:06:38.091Z,100876.00
2022-11-29T16:09:11.068Z,100875.14
2022-11-29T16:11:39.923Z,100878.41
2022-11-29T16:14:11.008Z,100880.15
2022-11-29T16:16:41.034Z,100882.90
2022-11-29T16:19:22.937Z,100887.21
2022-11-29T16:22:12.616Z,100888.92
2022-11-29T16:25:05.703Z,100889.11
2022-11-29T16:27:35.645Z,100886.86
2022-11-29T16:30:05.511Z,100883.77
2022-11-29T16:32:42.681Z,100886.52
2022-11-29T16:35:20.880Z,100887.89
2022-11-29T16:37:49.243Z,100891.67
2022-11-29T16:40:25.816Z,100895.48
2022-11-29T16:43:03.023Z,100894.60
2022-11-29T16:45:38.727Z,100893.23
2022-11-29T16:48:22.018Z,100893.05
2022-11-29T16:51:15.056Z,100890.65
2022-11-29T16:53:48.367Z,100888.41
2022-11-29T16:56:19.318Z,100890.48
2022-11-29T16:59:20.491Z,100890.48
2022-11-29T17:01:40.516Z,100889.96
2022-11-29T17:04:09.390Z,100892.54
2022-11-29T17:06:38.334Z,100895.64
2022-11-29T17:09:06.268Z,100896.14
2022-11-29T17:11:34.178Z,100897.52
2022-11-29T17:14:02.618Z,100895.27
2022-11-29T17:16:30.558Z,100895.98
2022-11-29T17:18:58.686Z,100899.08
2022-11-29T17:21:28.230Z,100894.60
2022-11-29T17:23:56.195Z,100895.57
2022-11-29T17:26:24.835Z,100890.72
2022-11-29T17:28:53.239Z,100887.66
2022-11-29T17:31:24.152Z,100885.93
2022-11-29T17:33:52.553Z,100883.20
2022-11-29T17:36:21.498Z,100884.95
2022-11-29T17:38:49.581Z,100885.64
2022-11-29T17:41:25.358Z,100882.20
2022-11-29T17:43:55.561Z,100876.69
2022-11-29T17:46:28.769Z,100870.49
2022-11-29T17:48:59.616Z,100866.00
2022-11-29T17:51:51.164Z,100866.53
2022-11-29T17:54:16.713Z,100867.04
2022-11-29T17:56:44.662Z,100867.90
2022-11-29T17:59:12.651Z,100872.04
2022-11-29T18:01:40.623Z,100874.10
2022-11-29T18:04:08.616Z,100878.58
2022-11-29T18:06:39.603Z,100882.88
2022-11-29T18:09:10.880Z,100882.88
2022-11-29T18:11:48.655Z,100881.48
2022-11-29T18:14:24.161Z,100881.98
2022-11-29T18:16:52.506Z,100879.75
2022-11-29T18:19:22.540Z,100875.77
2022-11-29T18:21:51.324Z,100875.92
2022-11-29T18:24:19.767Z,100875.04
2022-11-29T18:26:47.941Z,100876.73
2022-11-29T18:29:16.290Z,100874.46
2022-11-29T18:31:46.665Z,100874.25
2022-11-29T18:34:15.794Z,100868.88
2022-11-29T18:36:46.887Z,100871.27
2022-11-29T18:39:17.716Z,100870.59
2022-11-29T18:41:48.607Z,100869.55
2022-11-29T18:44:19.832Z,100871.95
2022-11-29T18:46:48.047Z,100867.98
2022-11-29T18:49:18.105Z,100869.42
2022-11-29T18:51:47.799Z,100870.52
2022-11-29T18:54:18.302Z,100869.67
2022-11-29T18:56:47.090Z,100872.39
2022-11-29T18:59:17.317Z,100865.79
2022-11-29T19:01:48.457Z,100864.38
2022-11-29T19:04:19.921Z,100863.30
2022-11-29T19:06:48.472Z,100863.12
2022-11-29T19:09:21.173Z,100866.20
2022-11-29T19:11:50.458Z,100858.98
2022-11-29T19:14:19.218Z,100850.38
2022-11-29T19:16:50.045Z,100850.88
2022-11-29T19:19:19.321Z,100849.49
2022-11-29T19:21:47.756Z,100848.44
2022-11-29T19:24:18.191Z,100848.09
2022-11-29T19:26:50.064Z,100848.44
2022-11-29T19:29:18.021Z,100848.45
2022-11-29T19:31:45.999Z,100848.81
2022-11-29T19:34:14.517Z,100849.02
2022-11-29T19:36:43.897Z,100854.52
2022-11-29T19:39:14.814Z,100854.36
2022-11-29T19:41:48.001Z,100850.25
2022-11-29T19:44:16.231Z,100848.36
2022-11-29T19:46:48.872Z,100847.69
2022-11-29T19:49:17.471Z,100849.05
2022-11-29T19:51:49.876Z,100850.44
2022-11-29T19:54:19.227Z,100852.85
2022-11-29T19:56:56.003Z,100853.71
2022-11-29T19:59:38.773Z,100852.34
2022-11-29T20:02:07.146Z,100855.27
2022-11-29T20:04:41.213Z,100854.92
2022-11-29T20:07:09.231Z,100856.27
2022-11-29T20:09:37.720Z,100853.35
2022-11-29T20:12:06.133Z,100854.21
2022-11-29T20:14:40.592Z,100850.59
2022-11-29T20:17:27.598Z,100847.30
2022-11-29T20:19:59.277Z,100841.77
2022-11-29T20:22:27.247Z,100839.52
2022-11-29T20:24:55.326Z,100842.80
2022-11-29T20:27:23.855Z,100844.88
2022-11-29T20:29:51.867Z,100847.12
2022-11-29T20:32:19.852Z,100846.61
2022-11-29T20:34:48.312Z,100844.73
2022-11-29T20:37:55.056Z,100845.59
2022-11-29T20:40:30.152Z,100846.97
2022-11-29T20:43:06.523Z,100847.83
2022-11-29T20:45:34.702Z,100849.71
2022-11-29T20:48:21.781Z,100848.33
2022-11-29T20:51:01.571Z,100849.35
2022-11-29T20:53:41.773Z,100850.20
2022-11-29T20:56:11.362Z,100848.84
2022-11-29T20:58:39.914Z,100848.69
2022-11-29T21:01:08.185Z,100846.97
2022-11-29T21:03:36.913Z,100847.84
2022-11-29T21:06:06.405Z,100841.99
2022-11-29T21:08:34.739Z,100842.34
2022-11-29T21:11:05.592Z,100848.17
2022-11-29T21:13:34.556Z,100845.91
2022-11-29T21:16:03.382Z,100844.91
2022-11-29T21:18:32.832Z,100844.41
2022-11-29T21:21:25.148Z,100838.73
2022-11-29T21:24:03.357Z,100837.54
2022-11-29T21:26:46.864Z,100837.02
2022-11-29T21:29:18.508Z,100836.98
2022-11-29T21:31:49.652Z,100831.96
2022-11-29T21:34:18.150Z,100831.07
2022-11-29T21:36:50.576Z,100832.09
2022-11-29T21:39:18.522Z,100835.37
2022-11-29T21:41:48.466Z,100834.00
2022-11-29T21:44:16.689Z,100831.09
2022-11-29T21:46:44.721Z,100825.77
2022-11-29T21:49:12.992Z,100824.77
2022-11-29T21:51:41.083Z,100827.71
2022-11-29T21:54:08.944Z,100831.84
2022-11-29T21:56:36.896Z,100830.14
2022-11-29T21:59:05.794Z,100833.41
2022-11-29T22:01:34.017Z,100830.66
2022-11-29T22:04:02.478Z,100829.97
2022-11-29T22:06:30.416Z,100830.29
2022-11-29T22:08:59.959Z,100827.52
2022-11-29T22:11:36.957Z,100825.27
2022-11-29T22:14:15.182Z,100823.86
2022-11-29T22:16:54.384Z,100825.05
2022-11-29T22:19:28.397Z,100825.40
2022-11-29T22:22:05.659Z,100824.02
2022-11-29T22:24:35.660Z,100829.83
2022-11-29T22:27:04.470Z,100829.45
2022-11-29T22:29:32.821Z,100824.27
2022-11-29T22:32:01.303Z,100819.45
2022-11-29T22:34:29.283Z,100819.25
2022-11-29T22:36:58.038Z,100818.90
2022-11-29T22:39:26.026Z,100819.05
2022-11-29T22:41:55.250Z,100817.30
2022-11-29T22:44:24.081Z,100821.91
2022-11-29T22:46:52.526Z,100825.00
2022-11-29T22:49:20.857Z,100826.55
2022-11-29T22:51:49.115Z,100830.65
2022-11-29T22:54:17.712Z,100827.39
2022-11-29T22:56:46.141Z,100827.91
2022-11-29T22:59:14.313Z,100826.55
2022-11-29T23:01:42.868Z,100820.89
2022-11-29T23:04:12.360Z,100817.14
2022-11-29T23:06:45.430Z,100815.44
2022-11-29T23:09:16.728Z,100812.17
2022-11-29T23:11:46.202Z,100813.05
2022-11-29T23:14:14.093Z,100805.84
2022-11-29T23:16:42.951Z,100800.35
2022-11-29T23:19:11.223Z,100801.20
2022-11-29T23:21:41.232Z,100807.72
2022-11-29T23:24:09.411Z,100810.63
2022-11-29T23:26:40.308Z,100812.83
2022-11-29T23:29:11.938Z,100812.80
2022-11-29T23:31:40.565Z,100816.02
2022-11-29T23:34:08.832Z,100815.83
2022-11-29T23:36:36.869Z,100812.20
2022-11-29T23:39:06.733Z,100811.66
2022-11-29T23:41:36.358Z,100811.49
2022-11-29T23:44:05.913Z,100809.42
2022-11-29T23:46:35.475Z,100809.77
2022-11-29T23:49:03.592Z,100815.23
2022-11-29T23:51:31.559Z,100818.46
2022-11-29T23:53:59.850Z,100818.47
2022-11-29T23:56:28.186Z,100813.52
2022-11-29T23:58:56.315Z,100808.73
